createdAt,value
2017-08-08T00:02:24.885Z,20.97
2017-08-08T00:04:52.370Z,21.11
2017-08-08T00:07:19.821Z,21.16
2017-08-08T00:09:47.307Z,21.19
2017-08-08T00:12:14.800Z,21.16
2017-08-08T00:14:42.295Z,21.05
2017-08-08T00:17:09.782Z,20.94
2017-08-08T00:19:37.221Z,20.86
2017-08-08T00:22:04.708Z,20.93
2017-08-08T00:24:32.152Z,21.03
2017-08-08T00:26:59.638Z,20.93
2017-08-08T00:29:27.102Z,20.91
2017-08-08T00:31:54.582Z,20.88
2017-08-08T00:34:22.046Z,20.94
2017-08-08T00:36:49.533Z,20.88
2017-08-08T00:39:16.990Z,20.85
2017-08-08T00:41:44.437Z,20.79
2017-08-08T00:44:11.907Z,20.81
2017-08-08T00:46:39.394Z,20.88
2017-08-08T00:49:06.849Z,20.87
2017-08-08T00:51:34.334Z,20.95
2017-08-08T00:54:01.817Z,20.96
2017-08-08T00:56:29.273Z,20.99
2017-08-08T00:58:56.765Z,20.89
2017-08-08T01:01:24.238Z,20.70
2017-08-08T01:03:51.721Z,20.70
2017-08-08T01:06:19.186Z,20.72
2017-08-08T01:08:46.640Z,20.59
2017-08-08T01:11:14.142Z,20.54
2017-08-08T01:13:41.596Z,20.63
2017-08-08T01:16:09.070Z,20.57
2017-08-08T01:18:36.550Z,20.49
2017-08-08T01:21:04.067Z,20.52
2017-08-08T01:23:31.524Z,20.54
2017-08-08T01:25:59.011Z,20.57
2017-08-08T01:28:26.465Z,20.52
2017-08-08T01:30:53.947Z,20.45
2017-08-08T01:33:21.406Z,20.41
2017-08-08T01:35:48.895Z,20.52
2017-08-08T01:38:16.370Z,20.33
2017-08-08T01:40:43.824Z,20.26
2017-08-08T01:43:11.331Z,20.30
2017-08-08T01:45:38.794Z,20.37
2017-08-08T01:48:06.282Z,20.43
2017-08-08T01:50:33.730Z,20.50
2017-08-08T01:53:01.210Z,20.48
2017-08-08T01:55:28.667Z,20.48
2017-08-08T01:57:56.137Z,20.41
2017-08-08T02:00:23.615Z,20.39
2017-08-08T02:02:51.085Z,20.44
2017-08-08T02:05:18.578Z,20.19
2017-08-08T02:07:46.050Z,20.28
2017-08-08T02:10:13.536Z,20.29
2017-08-08T02:12:40.988Z,20.43
2017-08-08T02:15:08.474Z,20.42
2017-08-08T02:17:35.942Z,20.42
2017-08-08T02:20:03.447Z,20.45
2017-08-08T02:22:30.922Z,20.51
2017-08-08T02:24:58.378Z,20.53
2017-08-08T02:27:25.872Z,20.62
2017-08-08T02:29:53.313Z,20.66
2017-08-08T02:32:20.803Z,20.56
2017-08-08T02:34:48.283Z,20.71
2017-08-08T02:37:15.771Z,20.73
2017-08-08T02:39:43.233Z,20.71
2017-08-08T02:42:10.702Z,20.83
2017-08-08T02:47:11.997Z,20.99
2017-08-08T02:49:39.455Z,20.95
2017-08-08T02:52:06.905Z,21.02
2017-08-08T02:54:34.392Z,21.06
2017-08-08T02:57:01.869Z,21.01
2017-08-08T02:59:29.379Z,20.91
2017-08-08T03:01:56.888Z,20.87
2017-08-08T03:04:24.349Z,20.83
2017-08-08T03:06:51.818Z,20.74
2017-08-08T03:09:19.285Z,20.62
2017-08-08T03:11:46.767Z,20.58
2017-08-08T03:14:14.224Z,20.65
2017-08-08T03:16:41.723Z,20.72
2017-08-08T03:19:09.176Z,20.72
2017-08-08T03:21:36.656Z,20.67
2017-08-08T03:24:04.131Z,20.63
2017-08-08T03:26:31.635Z,20.61
2017-08-08T03:28:59.106Z,20.47
2017-08-08T03:31:26.602Z,20.47
2017-08-08T03:33:54.065Z,20.50
2017-08-08T03:36:21.533Z,20.54
2017-08-08T03:38:49.016Z,20.54
2017-08-08T03:41:16.502Z,20.53
2017-08-08T03:43:43.973Z,20.49
2017-08-08T03:46:11.449Z,20.54
2017-08-08T03:48:38.942Z,20.42
2017-08-08T03:51:06.384Z,20.23
2017-08-08T03:53:33.923Z,20.25
2017-08-08T03:56:01.436Z,20.42
2017-08-08T03:58:28.906Z,20.47
2017-08-08T04:00:56.387Z,20.46
2017-08-08T04:03:23.872Z,20.45
2017-08-08T04:05:51.368Z,20.52
2017-08-08T04:08:18.915Z,20.50
2017-08-08T04:10:46.416Z,20.39
2017-08-08T04:13:13.866Z,20.45
2017-08-08T04:15:41.357Z,20.56
2017-08-08T04:18:08.827Z,20.47
2017-08-08T04:20:36.327Z,20.33
2017-08-08T04:23:03.799Z,20.28
2017-08-08T04:25:31.347Z,20.24
2017-08-08T04:27:58.794Z,20.27
2017-08-08T04:30:26.274Z,20.24
2017-08-08T04:32:53.732Z,20.26
2017-08-08T04:35:21.247Z,20.20
2017-08-08T04:37:48.732Z,20.16
2017-08-08T04:40:16.208Z,20.16
2017-08-08T04:42:43.711Z,20.09
2017-08-08T04:45:11.165Z,20.19
2017-08-08T04:47:38.647Z,20.17
2017-08-08T04:50:06.104Z,20.09
2017-08-08T04:52:33.597Z,20.18
2017-08-08T04:55:01.051Z,20.20
2017-08-08T04:57:28.538Z,20.23
2017-08-08T04:59:56.036Z,20.25
2017-08-08T05:02:23.515Z,20.16
2017-08-08T05:04:51.002Z,20.05
2017-08-08T05:07:18.802Z,20.15
2017-08-08T05:09:46.278Z,20.08
2017-08-08T05:12:13.747Z,20.08
2017-08-08T05:14:41.252Z,20.14
2017-08-08T05:17:08.714Z,20.18
2017-08-08T05:19:36.195Z,20.07
2017-08-08T05:22:03.662Z,20.03
2017-08-08T05:24:31.164Z,20.13
2017-08-08T05:26:58.671Z,20.15
2017-08-08T05:29:26.141Z,20.09
2017-08-08T05:31:53.614Z,20.16
2017-08-08T05:34:21.095Z,20.22
2017-08-08T05:36:48.606Z,20.31
2017-08-08T05:39:16.085Z,20.37
2017-08-08T05:41:43.586Z,20.33
2017-08-08T05:44:11.697Z,20.32
2017-08-08T05:46:39.153Z,20.32
2017-08-08T05:49:07.223Z,20.34
2017-08-08T05:51:35.603Z,20.34
2017-08-08T05:54:03.122Z,20.43
2017-08-08T05:56:30.599Z,20.44
2017-08-08T05:58:58.094Z,20.52
2017-08-08T06:01:25.644Z,20.65
2017-08-08T06:03:53.600Z,20.70
2017-08-08T06:06:21.087Z,20.77
2017-08-08T06:08:48.576Z,20.74
2017-08-08T06:11:16.039Z,20.76
2017-08-08T06:13:43.554Z,20.73
2017-08-08T06:16:11.055Z,20.78
2017-08-08T06:18:38.555Z,20.73
2017-08-08T06:21:06.076Z,20.82
2017-08-08T06:23:33.544Z,20.88
2017-08-08T06:26:01.017Z,20.90
2017-08-08T06:28:28.463Z,20.98
2017-08-08T06:30:55.959Z,21.03
2017-08-08T06:33:23.459Z,21.17
2017-08-08T06:35:50.942Z,21.29
2017-08-08T06:38:18.428Z,21.39
2017-08-08T06:40:45.877Z,21.48
2017-08-08T06:43:14.577Z,21.55
2017-08-08T06:45:42.049Z,21.63
2017-08-08T06:48:09.594Z,21.58
2017-08-08T06:50:37.079Z,21.58
2017-08-08T06:53:04.569Z,21.68
2017-08-08T06:55:32.032Z,21.65
2017-08-08T06:57:59.543Z,21.55
2017-08-08T07:00:27.007Z,21.43
2017-08-08T07:02:54.518Z,21.29
2017-08-08T07:05:22.015Z,21.37
2017-08-08T07:07:49.522Z,21.43
2017-08-08T07:10:17.091Z,21.49
2017-08-08T07:12:44.562Z,21.44
2017-08-08T07:15:12.065Z,21.45
2017-08-08T07:17:39.568Z,21.49
2017-08-08T07:20:07.102Z,21.51
2017-08-08T07:22:34.762Z,21.43
2017-08-08T07:25:02.258Z,21.36
2017-08-08T07:27:29.735Z,21.35
2017-08-08T07:29:57.763Z,21.23
2017-08-08T07:32:25.366Z,21.22
2017-08-08T07:34:52.898Z,21.18
2017-08-08T07:37:20.406Z,21.13
2017-08-08T07:39:48.093Z,21.28
2017-08-08T07:42:15.658Z,21.31
2017-08-08T07:44:43.165Z,21.26
2017-08-08T07:47:11.652Z,21.13
2017-08-08T07:49:39.754Z,21.07
2017-08-08T07:52:07.250Z,21.01
2017-08-08T07:54:34.738Z,20.60
2017-08-08T07:57:02.238Z,20.44
2017-08-08T07:59:30.555Z,20.28
2017-08-08T08:01:58.055Z,20.25
2017-08-08T08:04:25.591Z,20.20
2017-08-08T08:06:53.079Z,20.16
2017-08-08T08:09:20.688Z,20.23
2017-08-08T08:11:48.201Z,20.25
2017-08-08T08:14:15.715Z,20.10
2017-08-08T08:16:44.046Z,20.06
2017-08-08T08:19:11.571Z,19.99
2017-08-08T08:21:39.080Z,19.94
2017-08-08T08:24:06.554Z,19.92
2017-08-08T08:26:34.059Z,20.12
2017-08-08T08:29:01.623Z,20.36
2017-08-08T08:31:29.952Z,20.59
2017-08-08T08:33:57.461Z,20.69
2017-08-08T08:36:25.022Z,20.75
2017-08-08T08:38:52.615Z,20.75
2017-08-08T08:41:20.081Z,20.67
2017-08-08T08:43:47.569Z,20.51
2017-08-08T08:46:15.077Z,20.45
2017-08-08T08:48:42.607Z,20.58
2017-08-08T08:51:10.067Z,20.52
2017-08-08T08:53:37.576Z,20.61
2017-08-08T08:56:05.041Z,20.55
2017-08-08T08:58:32.542Z,20.46
2017-08-08T09:01:00.011Z,20.60
2017-08-08T09:03:27.566Z,20.62
2017-08-08T09:05:55.075Z,20.49
2017-08-08T09:08:22.634Z,20.51
2017-08-08T09:10:50.129Z,20.57
2017-08-08T09:13:18.860Z,20.45
2017-08-08T09:15:46.321Z,20.68
2017-08-08T09:18:13.883Z,20.61
2017-08-08T09:20:41.366Z,20.78
2017-08-08T09:23:08.869Z,20.76
2017-08-08T09:25:36.375Z,20.81
2017-08-08T09:28:03.876Z,20.84
2017-08-08T09:30:32.264Z,20.72
2017-08-08T09:32:59.766Z,20.75
2017-08-08T09:35:27.241Z,20.87
2017-08-08T09:37:54.731Z,20.76
2017-08-08T09:40:22.210Z,20.77
2017-08-08T09:42:49.733Z,20.82
2017-08-08T09:45:17.193Z,20.90
2017-08-08T09:47:44.683Z,20.86
2017-08-08T09:50:12.173Z,20.93
2017-08-08T09:52:40.380Z,21.06
2017-08-08T09:55:07.852Z,21.14
2017-08-08T09:57:35.374Z,21.21
2017-08-08T10:00:02.870Z,21.10
2017-08-08T10:02:30.377Z,21.41
2017-08-08T10:04:57.944Z,21.35
2017-08-08T10:07:25.408Z,21.47
2017-08-08T10:09:52.895Z,21.57
2017-08-08T10:12:20.395Z,21.63
2017-08-08T10:14:47.837Z,21.76
2017-08-08T10:17:15.803Z,21.85
2017-08-08T10:19:43.306Z,22.07
2017-08-08T10:22:10.792Z,22.20
2017-08-08T10:24:38.265Z,22.22
2017-08-08T10:27:05.743Z,22.32
2017-08-08T10:29:33.558Z,22.37
2017-08-08T10:32:01.043Z,22.32
2017-08-08T10:34:28.510Z,22.33
2017-08-08T10:36:56.007Z,22.33
2017-08-08T10:39:24.006Z,22.36
2017-08-08T10:41:51.486Z,22.33
2017-08-08T10:44:19.014Z,22.25
2017-08-08T10:46:46.509Z,22.30
2017-08-08T10:49:13.978Z,22.08
2017-08-08T10:51:41.493Z,22.29
2017-08-08T10:54:08.990Z,22.23
2017-08-08T10:56:36.509Z,22.31
2017-08-08T10:59:04.362Z,22.38
2017-08-08T11:01:31.856Z,22.33
2017-08-08T11:03:59.362Z,22.33
2017-08-08T11:06:26.945Z,22.30
2017-08-08T11:08:54.452Z,22.28
2017-08-08T11:11:23.525Z,22.13
2017-08-08T11:13:50.982Z,22.09
2017-08-08T11:16:18.623Z,22.08
2017-08-08T11:18:46.097Z,22.05
2017-08-08T11:21:13.565Z,22.07
2017-08-08T11:23:41.370Z,22.17
2017-08-08T11:26:08.815Z,22.23
2017-08-08T11:28:36.317Z,22.30
2017-08-08T11:31:03.843Z,22.24
2017-08-08T11:33:31.425Z,22.36
2017-08-08T11:35:58.930Z,22.42
2017-08-08T11:38:27.156Z,22.42
2017-08-08T11:40:54.681Z,22.56
2017-08-08T11:43:22.133Z,22.67
2017-08-08T11:45:49.704Z,22.75
2017-08-08T11:48:17.165Z,22.75
2017-08-08T11:50:44.653Z,22.80
2017-08-08T11:53:12.108Z,22.92
2017-08-08T11:55:39.596Z,23.12
2017-08-08T11:58:07.981Z,23.15
2017-08-08T12:00:35.459Z,23.40
2017-08-08T12:03:03.758Z,23.61
2017-08-08T12:05:31.263Z,23.53
2017-08-08T12:07:58.734Z,23.50
2017-08-08T12:10:26.225Z,23.72
2017-08-08T12:12:53.722Z,23.64
2017-08-08T12:15:21.205Z,23.88
2017-08-08T12:17:48.698Z,23.96
2017-08-08T12:20:16.175Z,24.09
2017-08-08T12:22:43.728Z,24.35
2017-08-08T12:25:11.193Z,24.18
2017-08-08T12:27:39.631Z,24.47
2017-08-08T12:30:07.165Z,24.78
2017-08-08T12:32:34.725Z,24.84
2017-08-08T12:35:02.186Z,24.76
2017-08-08T12:37:29.706Z,24.39
2017-08-08T12:39:57.165Z,24.32
2017-08-08T12:42:25.562Z,24.03
2017-08-08T12:44:53.048Z,23.97
2017-08-08T12:47:20.630Z,23.95
2017-08-08T12:49:48.132Z,23.84
2017-08-08T12:52:15.639Z,23.83
2017-08-08T12:54:43.097Z,23.84
2017-08-08T12:57:10.601Z,23.89
2017-08-08T12:59:38.082Z,23.80
2017-08-08T13:02:05.631Z,23.64
2017-08-08T13:04:33.141Z,23.88
2017-08-08T13:07:00.643Z,23.89
2017-08-08T13:09:29.006Z,23.88
2017-08-08T13:11:56.969Z,23.90
2017-08-08T13:14:24.470Z,23.90
2017-08-08T13:16:52.008Z,23.95
2017-08-08T13:19:19.509Z,23.89
2017-08-08T13:21:47.010Z,23.74
2017-08-08T13:24:14.681Z,23.64
2017-08-08T13:26:42.195Z,23.58
2017-08-08T13:29:09.722Z,23.69
2017-08-08T13:31:37.371Z,24.08
2017-08-08T13:34:05.177Z,24.51
2017-08-08T13:36:32.658Z,24.86
2017-08-08T13:39:00.159Z,25.12
2017-08-08T13:41:27.635Z,25.20
2017-08-08T13:43:55.124Z,25.34
2017-08-08T13:46:22.594Z,25.08
2017-08-08T13:48:50.115Z,25.28
2017-08-08T13:51:17.603Z,25.44
2017-08-08T13:53:45.136Z,25.65
2017-08-08T13:56:12.644Z,25.66
2017-08-08T13:58:40.202Z,25.52
2017-08-08T14:01:07.677Z,25.42
2017-08-08T14:03:36.069Z,25.15
2017-08-08T14:06:03.581Z,24.88
2017-08-08T14:08:31.066Z,24.99
2017-08-08T14:10:58.592Z,25.07
2017-08-08T14:13:26.550Z,24.99
2017-08-08T14:15:54.996Z,25.03
2017-08-08T14:18:23.242Z,25.31
2017-08-08T14:20:50.782Z,25.63
2017-08-08T14:23:18.231Z,25.65
2017-08-08T14:25:45.765Z,25.85
2017-08-08T14:28:13.284Z,26.07
2017-08-08T14:30:40.749Z,26.37
2017-08-08T14:33:08.224Z,26.66
2017-08-08T14:35:35.746Z,26.87
2017-08-08T14:38:03.960Z,27.28
2017-08-08T14:40:31.616Z,27.69
2017-08-08T14:42:59.119Z,27.91
2017-08-08T14:45:26.587Z,27.70
2017-08-08T14:47:54.091Z,27.58
2017-08-08T14:50:22.174Z,27.33
2017-08-08T14:52:50.452Z,26.95
2017-08-08T14:55:18.027Z,26.40
2017-08-08T14:57:45.571Z,26.22
2017-08-08T15:00:13.199Z,26.01
2017-08-08T15:02:40.671Z,26.02
2017-08-08T15:05:08.213Z,26.01
2017-08-08T15:07:51.306Z,25.76
2017-08-08T15:10:24.213Z,25.34
2017-08-08T15:12:51.808Z,25.68
2017-08-08T15:15:19.735Z,26.36
2017-08-08T15:17:47.242Z,26.59
2017-08-08T15:20:14.754Z,27.21
2017-08-08T15:22:42.259Z,27.40
2017-08-08T15:25:09.743Z,27.74
2017-08-08T15:27:37.223Z,28.00
2017-08-08T15:30:05.626Z,28.08
2017-08-08T15:32:33.187Z,28.32
2017-08-08T15:35:01.243Z,28.19
2017-08-08T15:37:28.742Z,27.25
2017-08-08T15:39:56.226Z,26.89
2017-08-08T15:42:23.822Z,26.66
2017-08-08T15:44:51.285Z,26.34
2017-08-08T15:47:18.755Z,26.17
2017-08-08T15:49:46.802Z,26.11
2017-08-08T15:52:14.250Z,25.92
2017-08-08T15:54:41.758Z,25.78
2017-08-08T15:57:09.223Z,25.79
2017-08-08T15:59:36.744Z,25.87
2017-08-08T16:02:04.381Z,25.71
2017-08-08T16:04:31.920Z,25.73
2017-08-08T16:06:59.372Z,25.70
2017-08-08T16:09:26.887Z,25.70
2017-08-08T16:11:54.366Z,25.82
2017-08-08T16:14:21.921Z,26.01
2017-08-08T16:16:49.407Z,26.09
2017-08-08T16:19:16.918Z,26.04
2017-08-08T16:21:44.524Z,26.07
2017-08-08T16:24:12.017Z,26.24
2017-08-08T16:26:39.514Z,26.32
2017-08-08T16:29:07.023Z,26.25
2017-08-08T16:31:34.642Z,26.39
2017-08-08T16:34:02.161Z,26.36
2017-08-08T16:36:29.852Z,26.06
2017-08-08T16:38:57.408Z,25.96
2017-08-08T16:41:24.861Z,25.99
2017-08-08T16:43:52.352Z,26.25
2017-08-08T16:46:19.850Z,26.03
2017-08-08T16:48:48.025Z,25.76
2017-08-08T16:51:15.544Z,25.75
2017-08-08T16:53:43.097Z,25.77
2017-08-08T16:56:10.588Z,25.77
2017-08-08T16:58:38.724Z,25.74
2017-08-08T17:01:06.175Z,25.89
2017-08-08T17:03:33.691Z,25.84
2017-08-08T17:06:01.170Z,25.86
2017-08-08T17:08:28.716Z,25.90
2017-08-08T17:10:56.222Z,25.85
2017-08-08T17:13:23.695Z,25.89
2017-08-08T17:15:51.205Z,25.60
2017-08-08T17:18:18.658Z,25.55
2017-08-08T17:20:46.151Z,25.53
2017-08-08T17:23:13.617Z,25.45
2017-08-08T17:25:41.108Z,25.39
2017-08-08T17:28:08.590Z,25.21
2017-08-08T17:30:36.697Z,25.21
2017-08-08T17:33:04.153Z,25.10
2017-08-08T17:35:31.716Z,24.95
2017-08-08T17:37:59.213Z,24.80
2017-08-08T17:40:26.669Z,24.56
2017-08-08T17:42:56.949Z,24.69
2017-08-08T17:45:24.451Z,24.66
2017-08-08T17:47:51.963Z,24.56
2017-08-08T17:50:19.423Z,24.67
2017-08-08T17:52:46.938Z,24.72
2017-08-08T17:55:16.027Z,24.70
2017-08-08T17:57:43.525Z,24.71
2017-08-08T18:00:11.083Z,24.84
2017-08-08T18:02:38.587Z,24.75
2017-08-08T18:05:06.087Z,24.67
2017-08-08T18:07:33.559Z,24.45
2017-08-08T18:10:01.032Z,24.43
2017-08-08T18:12:28.490Z,24.46
2017-08-08T18:14:55.984Z,24.34
2017-08-08T18:17:23.454Z,24.27
2017-08-08T18:19:50.943Z,24.25
2017-08-08T18:22:18.407Z,24.29
2017-08-08T18:24:45.897Z,24.15
2017-08-08T18:27:13.355Z,23.94
2017-08-08T18:29:40.811Z,24.02
2017-08-08T18:32:08.322Z,24.03
2017-08-08T18:34:35.805Z,23.91
2017-08-08T18:37:03.293Z,23.94
2017-08-08T18:39:31.389Z,23.84
2017-08-08T18:41:58.924Z,24.01
2017-08-08T18:44:26.409Z,23.99
2017-08-08T18:46:53.878Z,23.97
2017-08-08T18:49:21.381Z,23.95
2017-08-08T18:51:49.610Z,23.81
2017-08-08T18:54:17.124Z,23.78
2017-08-08T18:56:44.650Z,23.79
2017-08-08T18:59:12.147Z,23.83
2017-08-08T19:01:39.597Z,23.83
2017-08-08T19:04:07.131Z,23.72
2017-08-08T19:06:34.647Z,23.78
2017-08-08T19:09:02.171Z,23.76
2017-08-08T19:11:29.656Z,23.80
2017-08-08T19:13:57.184Z,23.71
2017-08-08T19:16:24.694Z,23.53
2017-08-08T19:18:52.195Z,23.49
2017-08-08T19:21:19.749Z,23.44
2017-08-08T19:23:47.272Z,23.37
2017-08-08T19:26:14.741Z,23.40
2017-08-08T19:28:42.225Z,23.39
2017-08-08T19:31:09.742Z,23.46
2017-08-08T19:33:37.218Z,23.20
2017-08-08T19:36:04.731Z,23.30
2017-08-08T19:38:32.236Z,23.18
2017-08-08T19:40:59.707Z,23.03
2017-08-08T19:43:27.231Z,22.98
2017-08-08T19:45:54.702Z,22.79
2017-08-08T19:48:22.201Z,22.73
2017-08-08T19:50:49.676Z,22.74
2017-08-08T19:53:17.174Z,22.78
2017-08-08T19:55:44.688Z,22.92
2017-08-08T19:58:12.250Z,22.83
2017-08-08T20:00:39.779Z,22.65
2017-08-08T20:03:07.275Z,22.66
2017-08-08T20:05:34.752Z,22.75
2017-08-08T20:08:02.232Z,22.84
2017-08-08T20:10:29.747Z,22.82
2017-08-08T20:12:57.238Z,22.77
2017-08-08T20:15:24.729Z,22.44
2017-08-08T20:17:52.198Z,22.20
2017-08-08T20:20:19.709Z,21.99
2017-08-08T20:22:47.210Z,22.01
2017-08-08T20:25:14.730Z,21.75
2017-08-08T20:27:42.187Z,21.66
2017-08-08T20:30:09.691Z,21.36
2017-08-08T20:32:37.153Z,21.27
2017-08-08T20:35:04.652Z,21.11
2017-08-08T20:37:32.134Z,20.98
2017-08-08T20:39:59.627Z,21.11
2017-08-08T20:42:27.127Z,21.06
2017-08-08T20:44:54.624Z,21.04
2017-08-08T20:47:22.081Z,20.99
2017-08-08T20:49:49.605Z,20.99
2017-08-08T20:52:17.069Z,20.79
2017-08-08T20:54:44.597Z,20.79
2017-08-08T20:57:12.105Z,20.64
2017-08-08T20:59:39.613Z,20.77
2017-08-08T21:02:07.071Z,20.75
2017-08-08T21:04:34.565Z,20.73
2017-08-08T21:07:02.050Z,20.55
2017-08-08T21:09:29.560Z,20.61
2017-08-08T21:11:57.134Z,20.56
2017-08-08T21:14:24.714Z,20.63
2017-08-08T21:16:52.234Z,20.67
2017-08-08T21:19:21.582Z,20.68
2017-08-08T21:21:49.096Z,20.62
2017-08-08T21:24:16.632Z,20.45
2017-08-08T21:26:44.101Z,20.51
2017-08-08T21:29:11.594Z,20.49
2017-08-08T21:31:39.068Z,20.42
2017-08-08T21:34:06.567Z,20.38
2017-08-08T21:36:34.030Z,20.31
2017-08-08T21:39:01.533Z,20.22
2017-08-08T21:41:29.059Z,20.16
2017-08-08T21:43:56.573Z,20.00
2017-08-08T21:46:24.063Z,19.79
2017-08-08T21:48:51.527Z,19.86
2017-08-08T21:51:19.004Z,19.91
2017-08-08T21:53:46.460Z,19.74
2017-08-08T21:56:13.953Z,19.74
2017-08-08T21:58:41.448Z,19.81
2017-08-08T22:01:08.898Z,19.77
2017-08-08T22:03:36.394Z,19.62
2017-08-08T22:06:03.890Z,19.60
2017-08-08T22:08:31.377Z,19.56
2017-08-08T22:10:58.862Z,19.52
2017-08-08T22:13:26.342Z,19.46
2017-08-08T22:15:53.803Z,19.41
2017-08-08T22:18:21.310Z,19.36
2017-08-08T22:20:48.760Z,19.24
2017-08-08T22:23:16.241Z,19.18
2017-08-08T22:25:43.720Z,19.09
2017-08-08T22:28:11.338Z,19.13
2017-08-08T22:30:38.796Z,19.23
2017-08-08T22:33:06.276Z,19.22
2017-08-08T22:35:33.740Z,19.14
2017-08-08T22:38:01.219Z,19.00
2017-08-08T22:40:28.678Z,19.05
2017-08-08T22:42:56.156Z,19.03
2017-08-08T22:45:23.610Z,19.07
2017-08-08T22:47:51.087Z,19.01
2017-08-08T22:50:18.555Z,18.90
2017-08-08T22:52:46.979Z,18.87
2017-08-08T22:55:14.493Z,18.77
2017-08-08T22:57:41.945Z,18.81
2017-08-08T23:00:09.448Z,18.87
2017-08-08T23:02:36.909Z,18.79
2017-08-08T23:05:04.449Z,18.81
2017-08-08T23:07:31.937Z,18.74
2017-08-08T23:09:59.426Z,18.66
2017-08-08T23:12:26.919Z,18.71
2017-08-08T23:14:54.382Z,18.68
2017-08-08T23:17:21.873Z,18.74
2017-08-08T23:19:49.336Z,18.79
2017-08-08T23:22:16.874Z,18.81
2017-08-08T23:24:44.397Z,18.76
2017-08-08T23:27:11.891Z,18.77
2017-08-08T23:29:39.359Z,18.59
2017-08-08T23:32:06.855Z,18.55
2017-08-08T23:34:34.363Z,18.67
2017-08-08T23:37:02.144Z,18.65
2017-08-08T23:39:29.652Z,18.69
2017-08-08T23:41:57.108Z,18.77
2017-08-08T23:44:24.625Z,18.77
2017-08-08T23:46:52.105Z,18.79
2017-08-08T23:49:20.596Z,18.79
2017-08-08T23:51:48.077Z,18.82
2017-08-08T23:54:15.562Z,18.69
2017-08-08T23:56:43.050Z,18.68
2017-08-08T23:59:10.525Z,18.58
